Seeley, CA (92273)

6:19 AM PST on February 06, 2016 (GMT -0800)
El Centro Naval Air Facility | | Change Station
CLOSE
Current Station
Airport
Location: El Centro,
Elevation: -43 ft
Nearby Weather Stations

Elev -43 ft 32.83 °N, 115.66 °W | Updated 23 minutes ago

Clear
Clear
41 °F
Feels Like 36 °F
N
8
Wind Variable Wind from West

Today
High -- | Low -- °F
--% Chance of Precip.
Yesterday
High -- | Low -- °F
Precip. -- in
Pressure 30.42 in
Visibility 10.0 miles
Clouds Clear
Windchill 36 °F
Dew Point 21 °F
Humidity 45%
Rainfall 0.00 in
Snow Depth Not available.
6:34 AM 5:19 PM
Waning Crescent, 5% visible
METAR KNJK 061356Z AUTO 27007KT 10SM CLR 05/M06 A3037 RMK AO2 SLP300 T00501061 $
Pressure 30.42 in
Visibility 10.0 miles
Clouds Clear
Windchill 36 °F
Dew Point 21 °F
Humidity 45%
Rainfall 0.00 in
Snow Depth Not available.
6:34 AM 5:19 PM
Waning Crescent, 5% visible
METAR KNJK 061356Z AUTO 27007KT 10SM CLR 05/M06 A3037 RMK AO2 SLP300 T00501061 $

10-Day Weather Forecast

Almanac

Astronomy

Feb. 06, 2016 Rise Set
Actual Time
Civil Twilight
Nautical Twilight
Astronomical Twilight
Moon
Length of Visible Light
Length of Day
Tomorrow will be .
, % of the Moon is Illuminated

Today's Extremes

State Highs State Lows

Community

WunderPhotos

Upload Photos

1,890,976 photos uploaded!

WunderBlog® & News

Nearby

Air Quality

  Air Quality AQ Index Pollutant
Not available.

Snow Depth

Station Depth Elevation

Earthquake Activity

City Distance Mag. Time & Date
Minimum magnitude displayed is 2.5.

Coastal Water Temperatures

Place Temperature

Stations

Nearby Weather Stations

Station Location Temp. Windchill Dew Point Humidity Wind Precip. Elev Updated Type
                   

Watches & Warnings

There are currently no watches in effect.